createdAt,value
2019-01-21T00:01:04.436Z,88.70
2019-01-21T00:04:09.669Z,88.53
2019-01-21T00:07:14.929Z,88.55
2019-01-21T00:10:20.124Z,88.46
2019-01-21T00:13:25.286Z,88.31
2019-01-21T00:16:30.435Z,88.30
2019-01-21T00:19:36.572Z,88.32
2019-01-21T00:22:41.690Z,88.11
2019-01-21T00:25:46.882Z,87.85
2019-01-21T00:28:52.066Z,87.63
2019-01-21T00:31:57.249Z,87.67
2019-01-21T00:35:02.399Z,87.95
2019-01-21T00:38:07.626Z,88.04
2019-01-21T00:41:12.781Z,88.25
2019-01-21T00:44:19.032Z,88.05
2019-01-21T00:47:29.888Z,88.25
2019-01-21T00:50:31.019Z,87.87
2019-01-21T00:53:36.228Z,87.97
2019-01-21T00:56:41.342Z,87.91
2019-01-21T00:59:46.477Z,88.07
2019-01-21T01:02:51.587Z,88.09
2019-01-21T01:05:56.770Z,87.59
2019-01-21T01:09:01.873Z,87.48
2019-01-21T01:12:08.901Z,87.51
2019-01-21T01:15:15.053Z,87.69
2019-01-21T01:18:21.837Z,87.69
2019-01-21T01:21:26.925Z,87.93
2019-01-21T01:24:32.150Z,88.05
2019-01-21T01:27:37.482Z,88.10
2019-01-21T01:30:42.608Z,87.41
2019-01-21T01:33:47.754Z,87.36
2019-01-21T01:36:52.865Z,87.72
2019-01-21T01:39:57.998Z,87.54
2019-01-21T01:43:03.171Z,87.38
2019-01-21T01:46:08.311Z,87.40
2019-01-21T01:49:13.593Z,87.56
2019-01-21T01:52:18.673Z,87.97
2019-01-21T01:55:25.243Z,87.43
2019-01-21T01:58:30.361Z,85.63
2019-01-21T02:01:35.500Z,85.66
2019-01-21T02:04:40.654Z,86.59
2019-01-21T02:07:46.034Z,86.67
2019-01-21T02:10:51.279Z,86.92
2019-01-21T02:13:56.412Z,86.21
2019-01-21T02:17:01.567Z,84.87
2019-01-21T02:20:09.267Z,83.94
2019-01-21T02:23:17.859Z,84.55
2019-01-21T02:26:25.729Z,85.03
2019-01-21T02:30:26.812Z,85.66
2019-01-21T02:34:16.693Z,86.78
2019-01-21T02:37:52.533Z,87.46
2019-01-21T02:41:39.102Z,87.33
2019-01-21T02:45:31.695Z,87.23
2019-01-21T02:48:59.470Z,87.60
2019-01-21T02:52:44.281Z,87.81
2019-01-21T02:56:03.209Z,87.44
2019-01-21T03:00:10.637Z,87.47
2019-01-21T03:03:53.120Z,85.83
2019-01-21T03:07:08.307Z,83.75
2019-01-21T03:10:35.002Z,83.61
2019-01-21T03:14:24.089Z,83.99
2019-01-21T03:18:08.073Z,84.79
2019-01-21T03:21:45.742Z,85.51
2019-01-21T03:25:20.775Z,85.78
2019-01-21T03:29:10.003Z,85.34
2019-01-21T03:32:55.662Z,83.88
2019-01-21T03:36:41.821Z,84.18
2019-01-21T03:40:12.881Z,82.87
2019-01-21T03:43:57.486Z,83.97
2019-01-21T03:47:26.318Z,83.08
2019-01-21T03:51:06.631Z,83.50
2019-01-21T03:54:32.597Z,84.60
2019-01-21T03:58:19.161Z,85.28
2019-01-21T04:01:47.371Z,84.74
2019-01-21T04:05:28.022Z,85.15
2019-01-21T04:09:09.044Z,85.59
2019-01-21T04:12:50.844Z,85.55
2019-01-21T04:16:18.510Z,86.18
2019-01-21T04:19:53.081Z,86.81
2019-01-21T04:23:35.102Z,87.32
2019-01-21T04:27:09.403Z,86.93
2019-01-21T04:30:54.453Z,87.01
2019-01-21T04:34:24.202Z,87.58
2019-01-21T04:38:00.644Z,88.52
2019-01-21T04:41:40.357Z,89.09
2019-01-21T04:45:00.426Z,89.77
2019-01-21T04:48:46.358Z,90.61
2019-01-21T04:52:59.580Z,91.37
2019-01-21T04:56:44.712Z,92.41
2019-01-21T05:00:38.713Z,93.12
2019-01-21T05:04:19.889Z,93.67
2019-01-21T05:08:12.043Z,94.11
2019-01-21T05:11:52.861Z,94.30
2019-01-21T05:15:29.051Z,94.33
2019-01-21T05:19:21.277Z,94.64
2019-01-21T05:23:01.998Z,94.85
2019-01-21T05:26:19.571Z,95.31
2019-01-21T05:30:11.100Z,95.52
2019-01-21T05:33:44.237Z,95.70
2019-01-21T05:37:30.254Z,95.89
2019-01-21T05:41:05.686Z,95.95
2019-01-21T05:44:35.402Z,96.05
2019-01-21T05:48:17.371Z,95.91
2019-01-21T05:51:59.585Z,95.39
2019-01-21T05:55:56.507Z,95.26
2019-01-21T05:59:38.785Z,94.84
2019-01-21T06:03:27.067Z,94.42
2019-01-21T06:06:43.858Z,94.34
2019-01-21T06:10:16.736Z,94.03
2019-01-21T06:14:05.199Z,93.97
2019-01-21T06:17:49.687Z,93.99
2019-01-21T06:21:31.775Z,94.70
2019-01-21T06:24:51.080Z,94.42
2019-01-21T06:28:25.690Z,94.71
2019-01-21T06:31:57.259Z,94.78
2019-01-21T06:35:46.562Z,95.22
2019-01-21T06:39:12.353Z,95.41
2019-01-21T06:43:10.893Z,95.61
2019-01-21T06:46:47.306Z,95.61
2019-01-21T06:50:28.631Z,95.70
2019-01-21T06:53:58.433Z,95.77
2019-01-21T06:57:37.502Z,95.92
2019-01-21T07:01:15.550Z,96.19
2019-01-21T07:04:49.319Z,96.11
2019-01-21T07:08:30.343Z,95.73
2019-01-21T07:12:06.578Z,95.28
2019-01-21T07:15:52.564Z,94.55
2019-01-21T07:19:30.753Z,93.52
2019-01-21T07:23:10.130Z,93.40
2019-01-21T07:26:52.039Z,93.77
2019-01-21T07:30:41.068Z,93.29
2019-01-21T07:34:05.819Z,92.95
2019-01-21T07:37:20.517Z,92.19
2019-01-21T07:41:18.258Z,92.37
2019-01-21T07:44:59.711Z,91.90
2019-01-21T07:48:44.010Z,91.45
2019-01-21T07:52:39.010Z,91.49
2019-01-21T07:56:30.062Z,90.87
2019-01-21T08:00:04.621Z,90.12
2019-01-21T08:03:47.063Z,89.74
2019-01-21T08:07:02.702Z,89.59
2019-01-21T08:11:04.044Z,89.39
2019-01-21T08:14:34.661Z,88.99
2019-01-21T08:18:17.827Z,88.37
2019-01-21T08:21:39.906Z,87.79
2019-01-21T08:25:21.435Z,87.49
2019-01-21T08:28:54.722Z,86.87
2019-01-21T08:32:50.030Z,86.45
2019-01-21T08:36:15.638Z,86.40
2019-01-21T08:39:57.345Z,85.99
2019-01-21T08:43:43.884Z,85.73
2019-01-21T08:47:18.010Z,85.32
2019-01-21T08:51:06.145Z,85.06
2019-01-21T08:54:40.061Z,84.74
2019-01-21T08:58:06.638Z,83.49
2019-01-21T09:01:45.830Z,83.26
2019-01-21T09:05:16.650Z,82.59
2019-01-21T09:08:56.617Z,81.96
2019-01-21T09:12:34.535Z,81.99
2019-01-21T09:16:19.455Z,82.46
2019-01-21T09:20:10.767Z,80.94
2019-01-21T09:24:01.045Z,80.46
2019-01-21T09:27:34.187Z,79.50
2019-01-21T09:31:26.444Z,77.89
2019-01-21T09:35:21.901Z,75.65
2019-01-21T09:39:05.683Z,75.84
2019-01-21T09:42:24.291Z,75.65
2019-01-21T09:46:14.858Z,75.42
2019-01-21T09:49:18.424Z,76.02
2019-01-21T09:52:25.056Z,77.36
2019-01-21T09:55:30.527Z,78.56
2019-01-21T09:58:35.945Z,77.89
2019-01-21T10:01:41.098Z,75.69
2019-01-21T10:05:05.944Z,74.70
2019-01-21T10:08:23.189Z,72.44
2019-01-21T10:12:21.638Z,71.49
2019-01-21T10:15:35.817Z,71.52
2019-01-21T10:19:13.167Z,72.66
2019-01-21T10:22:43.542Z,72.42
2019-01-21T10:26:11.338Z,74.10
2019-01-21T10:29:56.895Z,74.41
2019-01-21T10:33:48.827Z,73.02
2019-01-21T10:37:40.989Z,71.83
2019-01-21T10:41:20.068Z,70.29
2019-01-21T10:45:06.508Z,69.98
2019-01-21T10:48:28.757Z,73.10
2019-01-21T10:52:16.861Z,72.81
2019-01-21T10:56:12.087Z,71.17
2019-01-21T11:00:07.034Z,70.59
2019-01-21T11:03:24.613Z,67.76
2019-01-21T11:07:06.733Z,67.73
2019-01-21T11:10:53.328Z,68.35
2019-01-21T11:14:35.332Z,69.28
2019-01-21T11:17:58.346Z,68.40
2019-01-21T11:21:28.118Z,66.34
2019-01-21T11:25:18.301Z,67.47
2019-01-21T11:28:49.073Z,66.60
2019-01-21T11:32:25.143Z,66.83
2019-01-21T11:36:08.398Z,66.28
2019-01-21T11:40:05.013Z,66.61
2019-01-21T11:44:12.206Z,65.83
2019-01-21T11:47:49.294Z,62.50
2019-01-21T11:51:50.568Z,63.69
2019-01-21T11:55:28.553Z,62.68
2019-01-21T11:59:29.565Z,61.67
2019-01-21T12:03:23.491Z,62.48
2019-01-21T12:06:42.556Z,62.71
2019-01-21T12:10:10.216Z,61.09
2019-01-21T12:13:51.840Z,61.15
2019-01-21T12:17:20.972Z,62.20
2019-01-21T12:20:59.704Z,61.78
2019-01-21T12:24:31.320Z,61.89
2019-01-21T12:28:03.090Z,61.39
2019-01-21T12:31:31.056Z,60.86
2019-01-21T12:35:13.503Z,61.02
2019-01-21T12:38:53.373Z,59.38
2019-01-21T12:42:36.130Z,59.38
2019-01-21T12:46:12.279Z,59.82
2019-01-21T12:49:40.199Z,60.58
2019-01-21T12:53:04.765Z,60.84
2019-01-21T12:56:35.867Z,60.58
2019-01-21T13:00:00.677Z,60.11
2019-01-21T13:03:49.973Z,58.44
2019-01-21T13:07:48.367Z,58.99
2019-01-21T13:11:33.018Z,58.07
2019-01-21T13:15:11.561Z,59.47
2019-01-21T13:19:09.963Z,59.20
2019-01-21T13:22:41.232Z,60.48
2019-01-21T13:26:19.086Z,59.79
2019-01-21T13:30:00.628Z,59.36
2019-01-21T13:33:24.630Z,59.23
2019-01-21T13:37:10.959Z,57.29
2019-01-21T13:41:12.313Z,58.84
2019-01-21T13:44:49.611Z,58.76
2019-01-21T13:48:39.198Z,59.46
2019-01-21T13:52:08.248Z,59.33
2019-01-21T13:55:26.011Z,59.86
2019-01-21T13:59:07.579Z,59.56
2019-01-21T14:02:56.755Z,60.06
2019-01-21T14:06:33.468Z,58.97
2019-01-21T14:10:22.953Z,60.89
2019-01-21T14:13:52.950Z,60.79
2019-01-21T14:17:43.575Z,60.49
2019-01-21T14:21:35.606Z,61.25
2019-01-21T14:25:26.859Z,62.50
2019-01-21T14:29:06.092Z,61.46
2019-01-21T14:32:43.141Z,62.53
2019-01-21T14:36:29.216Z,64.41
2019-01-21T14:39:47.732Z,65.29
2019-01-21T14:43:15.020Z,66.35
2019-01-21T14:46:49.751Z,68.02
2019-01-21T14:50:17.837Z,69.12
2019-01-21T14:53:49.101Z,68.16
2019-01-21T14:57:23.852Z,67.75
2019-01-21T15:00:59.100Z,68.12
2019-01-21T15:04:48.020Z,67.71
2019-01-21T15:08:02.519Z,69.37
2019-01-21T15:11:34.390Z,69.51
2019-01-21T15:15:22.414Z,69.73
2019-01-21T15:18:48.152Z,70.31
2019-01-21T15:22:34.555Z,71.60
2019-01-21T15:26:03.515Z,71.60
2019-01-21T15:29:43.448Z,72.84
2019-01-21T15:33:44.192Z,72.46
2019-01-21T15:37:18.455Z,73.56
2019-01-21T15:41:03.417Z,74.47
2019-01-21T15:44:30.581Z,76.36
2019-01-21T15:48:18.405Z,77.62
2019-01-21T15:52:07.552Z,77.45
2019-01-21T15:56:02.051Z,77.75
2019-01-21T15:59:35.594Z,76.94
2019-01-21T16:03:12.899Z,77.21
2019-01-21T16:06:49.460Z,78.13
2019-01-21T16:10:38.992Z,79.58
2019-01-21T16:14:00.977Z,81.18
2019-01-21T16:17:33.166Z,82.39
2019-01-21T16:21:31.681Z,83.31
2019-01-21T16:24:44.728Z,83.03
2019-01-21T16:28:49.511Z,83.22
2019-01-21T16:32:09.309Z,83.09
2019-01-21T16:35:59.931Z,84.58
2019-01-21T16:39:38.533Z,85.18
2019-01-21T16:42:43.785Z,84.44
2019-01-21T16:45:48.952Z,84.71
2019-01-21T16:48:54.079Z,84.81
2019-01-21T16:51:59.311Z,84.58
2019-01-21T16:55:04.762Z,85.14
2019-01-21T16:58:09.925Z,86.02
2019-01-21T17:01:15.077Z,86.70
2019-01-21T17:04:20.329Z,86.65
2019-01-21T17:07:25.552Z,86.65
2019-01-21T17:10:30.706Z,86.83
2019-01-21T17:13:35.886Z,85.51
2019-01-21T17:16:41.048Z,85.12
2019-01-21T17:19:46.212Z,85.32
2019-01-21T17:22:51.408Z,85.44
2019-01-21T17:25:56.499Z,85.86
2019-01-21T17:29:01.670Z,85.72
2019-01-21T17:32:06.986Z,85.97
2019-01-21T17:35:12.986Z,86.60
2019-01-21T17:38:18.129Z,87.61
2019-01-21T17:41:23.479Z,87.56
2019-01-21T17:44:28.726Z,88.44
2019-01-21T17:47:33.890Z,89.19
2019-01-21T17:50:39.003Z,88.98
2019-01-21T17:53:44.251Z,88.31
2019-01-21T17:56:49.459Z,87.94
2019-01-21T17:59:54.782Z,87.84
2019-01-21T18:02:59.969Z,87.71
2019-01-21T18:06:05.568Z,87.32
2019-01-21T18:09:11.100Z,87.61
2019-01-21T18:12:16.394Z,88.30
2019-01-21T18:15:21.536Z,88.95
2019-01-21T18:18:26.828Z,89.30
2019-01-21T18:21:32.066Z,89.87
2019-01-21T18:24:38.377Z,90.25
2019-01-21T18:27:43.516Z,91.19
2019-01-21T18:30:48.750Z,91.42
2019-01-21T18:33:53.913Z,91.40
2019-01-21T18:36:59.430Z,91.41
2019-01-21T18:40:05.077Z,91.33
2019-01-21T18:43:10.399Z,91.50
2019-01-21T18:46:15.653Z,91.79
2019-01-21T18:49:22.904Z,92.14
2019-01-21T18:52:27.701Z,92.37
2019-01-21T18:55:32.933Z,92.50
2019-01-21T18:58:38.146Z,92.59
2019-01-21T19:01:43.371Z,92.64
2019-01-21T19:04:48.603Z,92.32
2019-01-21T19:07:53.851Z,92.20
2019-01-21T19:10:59.066Z,92.28
2019-01-21T19:14:04.999Z,92.08
2019-01-21T19:17:10.178Z,91.83
2019-01-21T19:20:16.194Z,91.81
2019-01-21T19:23:21.385Z,91.38
2019-01-21T19:26:26.610Z,90.71
2019-01-21T19:29:31.838Z,89.87
2019-01-21T19:32:37.065Z,89.99
2019-01-21T19:35:42.264Z,89.99
2019-01-21T19:38:47.562Z,90.34
2019-01-21T19:41:52.795Z,90.75
2019-01-21T19:44:58.029Z,91.20
2019-01-21T19:48:03.289Z,91.49
2019-01-21T19:51:08.711Z,91.92
2019-01-21T19:54:14.065Z,92.41
2019-01-21T19:57:19.299Z,92.70
2019-01-21T20:00:24.864Z,92.79
2019-01-21T20:03:30.151Z,92.45
2019-01-21T20:06:35.279Z,92.36
2019-01-21T20:09:40.532Z,92.32
2019-01-21T20:12:45.779Z,92.37
2019-01-21T20:15:50.957Z,92.29
2019-01-21T20:18:56.155Z,92.29
2019-01-21T20:22:07.031Z,92.61
2019-01-21T20:25:09.432Z,92.84
2019-01-21T20:28:14.592Z,92.72
2019-01-21T20:31:21.305Z,93.22
2019-01-21T20:34:26.617Z,93.51
2019-01-21T20:37:31.867Z,94.00
2019-01-21T20:40:37.185Z,94.29
2019-01-21T20:43:42.340Z,94.62
2019-01-21T20:46:47.587Z,94.89
2019-01-21T20:49:52.870Z,94.58
2019-01-21T20:52:58.098Z,93.84
2019-01-21T20:56:03.270Z,93.62
2019-01-21T20:59:08.541Z,93.36
2019-01-21T21:02:13.729Z,93.20
2019-01-21T21:05:18.990Z,93.62
2019-01-21T21:08:24.163Z,93.81
2019-01-21T21:11:29.439Z,94.01
2019-01-21T21:14:34.620Z,93.63
2019-01-21T21:17:39.927Z,93.61
2019-01-21T21:20:45.906Z,93.79
2019-01-21T21:23:51.129Z,94.18
2019-01-21T21:26:56.383Z,94.08
2019-01-21T21:30:01.699Z,94.05
2019-01-21T21:33:08.121Z,94.03
2019-01-21T21:36:13.265Z,94.43
2019-01-21T21:39:18.481Z,94.76
2019-01-21T21:42:23.661Z,94.97
2019-01-21T21:45:28.916Z,94.88
2019-01-21T21:48:34.175Z,94.93
2019-01-21T21:51:39.396Z,94.53
2019-01-21T21:54:44.597Z,94.46
2019-01-21T21:57:49.722Z,93.99
2019-01-21T22:00:55.423Z,93.49
2019-01-21T22:04:00.703Z,92.77
2019-01-21T22:07:06.119Z,92.40
2019-01-21T22:10:19.615Z,92.96
2019-01-21T22:13:22.522Z,93.58
2019-01-21T22:16:27.970Z,93.93
2019-01-21T22:19:33.278Z,94.06
2019-01-21T22:22:38.465Z,94.19
2019-01-21T22:25:43.780Z,94.30
2019-01-21T22:28:48.921Z,94.26
2019-01-21T22:31:54.067Z,94.28
2019-01-21T22:34:59.538Z,94.21
2019-01-21T22:38:04.704Z,94.35
2019-01-21T22:41:09.834Z,94.39
2019-01-21T22:44:15.030Z,94.46
2019-01-21T22:47:20.248Z,94.48
2019-01-21T22:50:25.406Z,94.37
2019-01-21T22:53:30.587Z,94.37
2019-01-21T22:56:35.708Z,93.96
2019-01-21T22:59:40.799Z,93.70
2019-01-21T23:02:45.970Z,93.24
2019-01-21T23:05:51.089Z,92.84
2019-01-21T23:08:56.473Z,93.18
2019-01-21T23:12:01.605Z,93.74
2019-01-21T23:15:07.359Z,93.92
2019-01-21T23:18:12.706Z,94.17
2019-01-21T23:21:19.415Z,94.48
2019-01-21T23:24:24.605Z,94.51
2019-01-21T23:27:29.766Z,94.21
2019-01-21T23:30:35.080Z,94.16
2019-01-21T23:33:40.190Z,94.23
2019-01-21T23:36:45.367Z,94.28
2019-01-21T23:39:51.510Z,94.31
2019-01-21T23:42:56.667Z,94.28
2019-01-21T23:46:01.834Z,94.35
2019-01-21T23:49:07.005Z,93.71
2019-01-21T23:52:12.225Z,93.18
2019-01-21T23:55:17.330Z,92.87
2019-01-21T23:58:22.499Z,92.54
